Terminal Aerodrome Forecast
Issued by NWS

Home | Current Version | Previous Version | Text Only | Print | Product List | Glossary On
Versions: 1 2 3 4 5 6 7 8 9 10 11 12 13 14 15 16 17 18 19 20
000
FTUS43 KICT 012034 AAA
TAFSLN
TAF AMD
KSLN 012034Z 0121/0218 33026G35KT 4SM -SN SCT015 BKN025
      TEMPO 0121/0123 2SM -SN BKN015
     FM020100 33017G24KT P6SM SCT030
     FM020700 34011KT P6SM SKC
     FM021400 18009KT P6SM SKC=

USA.gov is the U.S. government's official web portal to all federal, state and local government web resources and services.